Etusivu
METAR-TAF:

METAR-TAF

Lentoasemat :

Bournemouthin lentoasema

Bournemouth, Englanti

Leveyspiiri: 50-47N, Pituuspiiri: 001-50W, korkeus merenpinnasta: 11 m

Tämänhetkinen sää

Tämä raportti tehtiin 15 minuuttia sitten, kello 15.20 UTC
Tuuli 2 kn eri suunnista
Lämpötila 13°C
Kosteus 77%
Ilmanpaine 1032 hPa
Näkyvyys 10 km tai enemmän
Hajonneita pilviä 1900 ft:n korkeudessa

METAR: EGHH 211520Z VRB02KT 9999 BKN019 13/09 Q1032

Aika: 15:35 (15:35 UTC)

Sääennuste

Tämä raportti tehtiin 1 tunti ja 36 minuuttia sitten, kello 13.59 UTC
Ennuste voimassa 21. päivästä klo 15 UTC - 21. päivään klo 24 UTC
Tuuli 5 kn lännestä
Näkyvyys 10 km tai enemmän
Hajanaisia pilviä 1800 ft:n korkeudessa
Todennäköisyys 30% :
Ajoittain
21. päivästä klo 21 UTC - 21. päivään klo 24 UTC
Näkyvyys: 9000 m
Hajonneita pilviä 1400 ft:n korkeudessa

TAF: EGHH 211359Z 2115/2124 28005KT 9999 SCT018 PROB30 TEMPO 2121/2124 9000 BKN014

Säähavainnot ja -ennusteet yli 4000 lentoasemalta (METAR- ja TAF-raportit).

Käytössä olevat sääasemat on merkitty karttaan keltaisilla ja punaisilla pisteillä.

Aseta hiiri pisteen päälle nähdäksesi sääaseman nimen.

Klikkaa sitten nähdäksesi säähavainnot ja -ennusteet.

Kartan vaihtaminen: klikkaa mustalla rastilla varustettuja vihreitä pisteitä, niin voit zoomata sisään; viivalla varustettua vihreää pistettä, niin voit zoomata ulos tai vihreitä nuolia, niin pääset viereisille kartoille.


METAR-TAF: